Time;durP1;ratioP1;P1;durP2;ratioP2;P2;SDS_P1;SDS_P2;PMS_P1;PMS_P2;Temp;Humidity;BMP_temperature;BMP_pressure;BME280_temperature;BME280_humidity;BME280_pressure;Samples;Min_cycle;Max_cycle;Signal;HPM_P1;HPM_P2
2022/01/17 00:01:24;;;;;;;33.37;23.20;;;4.40;99.90;;;;;;5113700;28;20234;-55
2022/01/17 00:03:53;;;;;;;32.60;22.30;;;4.40;99.90;;;;;;5113271;28;20855;-56
2022/01/17 00:06:21;;;;;;;32.37;22.07;;;4.40;99.90;;;;;;5113509;28;20281;-55
2022/01/17 00:08:49;;;;;;;25.70;19.73;;;4.40;99.90;;;;;;5112948;28;20199;-54
2022/01/17 00:11:19;;;;;;;26.40;18.60;;;4.40;99.90;;;;;;5113030;28;20210;-56
2022/01/17 00:13:49;;;;;;;30.63;21.27;;;4.40;99.90;;;;;;5113317;28;20278;-56
2022/01/17 00:16:22;;;;;;;29.27;20.43;;;4.50;99.90;;;;;;5113106;28;20203;-55
2022/01/17 00:19:28;;;;;;;22.57;17.07;;;4.50;99.90;;;;;;5115180;27;20224;-55
2022/01/17 00:21:55;;;;;;;25.50;18.47;;;4.50;99.90;;;;;;5112719;28;20211;-54
2022/01/17 00:24:23;;;;;;;21.77;17.03;;;4.50;99.90;;;;;;5112563;28;20244;-55
2022/01/17 00:26:52;;;;;;;24.70;17.50;;;4.60;99.90;;;;;;5113203;28;20206;-54
2022/01/17 00:29:25;;;;;;;20.63;16.20;;;4.50;99.90;;;;;;5111847;28;20230;-56
2022/01/17 00:31:55;;;;;;;21.63;16.53;;;4.60;99.90;;;;;;5113018;28;20234;-55
2022/01/17 00:34:24;;;;;;;25.77;18.30;;;4.60;99.90;;;;;;5112538;28;20208;-55
2022/01/17 00:36:52;;;;;;;25.57;19.27;;;4.50;99.90;;;;;;5095683;28;20858;-55
2022/01/17 00:39:21;;;;;;;20.47;16.20;;;4.60;99.90;;;;;;5112525;28;20258;-54
2022/01/17 00:41:49;;;;;;;25.63;18.83;;;4.70;99.90;;;;;;5112460;28;20726;-56
2022/01/17 00:44:22;;;;;;;21.90;16.43;;;4.70;99.90;;;;;;5112461;28;20210;-55
2022/01/17 00:46:52;;;;;;;21.30;16.57;;;4.70;99.90;;;;;;5112145;28;20667;-55
2022/01/17 00:49:21;;;;;;;26.30;19.13;;;4.70;99.90;;;;;;5112512;27;20263;-54
2022/01/17 00:51:50;;;;;;;20.20;15.80;;;4.70;99.90;;;;;;5132443;27;20253;-55
2022/01/17 00:54:18;;;;;;;20.87;15.83;;;4.70;99.90;;;;;;5114059;27;20222;-55
2022/01/17 00:56:46;;;;;;;22.47;17.07;;;4.80;99.90;;;;;;5112708;28;20278;-55
2022/01/17 00:59:14;;;;;;;27.30;17.57;;;4.80;99.90;;;;;;5106836;28;20231;-54
2022/01/17 01:01:42;;;;;;;26.30;17.90;;;4.80;99.90;;;;;;5092755;28;20250;-54
2022/01/17 01:04:11;;;;;;;23.10;17.30;;;4.80;99.90;;;;;;5092687;28;20196;-54
2022/01/17 01:06:40;;;;;;;20.80;14.93;;;4.80;99.90;;;;;;5111218;28;20256;-54
2022/01/17 01:09:08;;;;;;;17.87;12.57;;;4.90;99.90;;;;;;5112287;28;20710;-56
2022/01/17 01:11:36;;;;;;;16.73;12.03;;;4.90;99.90;;;;;;5107760;28;20211;-54
2022/01/17 01:14:05;;;;;;;15.87;11.90;;;5.00;99.90;;;;;;5111874;28;20230;-56
2022/01/17 01:16:34;;;;;;;14.73;11.07;;;5.00;99.90;;;;;;5111924;28;20210;-55
2022/01/17 01:27:44;;;;;;;17.47;11.67;;;4.90;99.90;;;;;;5111935;28;20199;-56
2022/01/17 01:30:15;;;;;;;14.53;11.53;;;4.90;99.90;;;;;;5110979;28;20277;-55
2022/01/17 01:32:48;;;;;;;15.00;11.27;;;5.00;99.90;;;;;;5111943;28;20251;-55
2022/01/17 01:35:19;;;;;;;17.57;11.90;;;5.00;99.90;;;;;;5111462;28;20259;-56
2022/01/17 01:37:49;;;;;;;17.13;12.77;;;5.00;99.90;;;;;;5111876;28;20289;-54
2022/01/17 01:40:20;;;;;;;16.03;11.50;;;5.10;99.90;;;;;;5111008;28;20727;-54
2022/01/17 01:42:51;;;;;;;18.27;13.10;;;5.10;99.90;;;;;;5111255;28;20847;-54
2022/01/17 01:45:20;;;;;;;17.43;12.77;;;5.10;99.90;;;;;;5111326;28;20229;-55
2022/01/17 01:47:49;;;;;;;15.70;11.23;;;5.00;99.90;;;;;;5111584;28;20636;-55
2022/01/17 01:50:18;;;;;;;15.33;11.40;;;5.00;99.90;;;;;;5117267;27;20236;-55
2022/01/17 01:52:48;;;;;;;16.37;11.63;;;5.10;99.90;;;;;;5111167;28;20203;-55
2022/01/17 01:55:21;;;;;;;15.40;10.70;;;5.10;99.90;;;;;;5111137;28;20261;-54
2022/01/17 01:57:49;;;;;;;13.57;10.10;;;5.10;99.90;;;;;;5110844;28;20206;-54
2022/01/17 02:00:19;;;;;;;13.53;10.47;;;5.10;99.90;;;;;;5110085;28;20279;-55
2022/01/17 02:02:47;;;;;;;15.90;10.97;;;5.10;99.90;;;;;;5111366;28;20620;-55
2022/01/17 02:05:16;;;;;;;15.37;10.20;;;5.10;99.90;;;;;;5111129;28;20219;-55
2022/01/17 02:07:45;;;;;;;13.13;10.47;;;5.10;99.90;;;;;;5111156;28;20208;-54
2022/01/17 02:10:15;;;;;;;13.43;9.60;;;5.10;99.90;;;;;;5110915;28;20578;-56
2022/01/17 02:12:43;;;;;;;14.43;10.30;;;5.10;99.90;;;;;;5111273;28;20229;-55
2022/01/17 02:15:13;;;;;;;13.37;9.67;;;5.10;99.90;;;;;;5111193;28;20200;-55
2022/01/17 02:17:45;;;;;;;12.43;9.93;;;5.10;99.90;;;;;;5113225;28;20234;-55
2022/01/17 02:20:21;;;;;;;12.67;9.50;;;5.10;99.90;;;;;;5131471;28;20220;-55
2022/01/17 02:22:49;;;;;;;11.77;8.87;;;5.10;99.90;;;;;;5121725;28;20207;-54
2022/01/17 02:25:18;;;;;;;11.77;8.97;;;5.10;99.90;;;;;;5090991;28;20211;-56
2022/01/17 02:27:46;;;;;;;12.50;9.07;;;5.00;99.90;;;;;;5090935;28;20207;-55
2022/01/17 02:30:21;;;;;;;11.87;8.37;;;5.00;99.90;;;;;;5108615;28;20783;-55
2022/01/17 02:32:49;;;;;;;11.43;8.33;;;5.00;99.90;;;;;;5111113;28;20268;-55
2022/01/17 02:35:21;;;;;;;10.23;7.90;;;5.00;99.90;;;;;;5111118;28;20291;-54
2022/01/17 02:37:49;;;;;;;9.97;8.10;;;5.10;99.90;;;;;;5110911;28;20204;-55
2022/01/17 02:40:19;;;;;;;9.50;7.93;;;5.10;99.90;;;;;;5110950;28;20223;-55
2022/01/17 02:42:50;;;;;;;9.17;7.03;;;5.10;99.90;;;;;;5110791;28;20204;-55
2022/01/17 02:45:31;;;;;;;9.17;7.80;;;5.10;99.90;;;;;;5111205;28;20192;-55
2022/01/17 02:48:02;;;;;;;9.37;7.67;;;5.00;99.90;;;;;;5114874;28;20260;-54
2022/01/17 02:50:31;;;;;;;9.63;7.43;;;5.00;99.90;;;;;;5127373;27;20283;-55
2022/01/17 02:53:00;;;;;;;10.00;7.03;;;5.10;99.90;;;;;;5110909;28;20233;-55
2022/01/17 02:55:28;;;;;;;7.93;6.47;;;5.10;99.90;;;;;;5110894;28;20206;-56
2022/01/17 02:57:57;;;;;;;9.13;7.07;;;5.10;99.90;;;;;;5114319;28;20724;-55
2022/01/17 03:00:25;;;;;;;8.30;6.60;;;5.10;99.90;;;;;;5098717;28;20235;-55
2022/01/17 03:02:54;;;;;;;7.33;6.50;;;5.10;99.90;;;;;;5112497;28;20281;-54
2022/01/17 03:05:22;;;;;;;8.97;6.63;;;5.10;99.90;;;;;;5131066;27;20221;-55
2022/01/17 03:07:52;;;;;;;10.77;6.70;;;5.10;99.90;;;;;;5120534;27;20236;-54
2022/01/17 03:10:32;;;;;;;10.93;7.30;;;5.10;99.90;;;;;;5113997;28;20280;-54
2022/01/17 03:13:04;;;;;;;9.77;7.17;;;5.10;99.90;;;;;;5114710;28;20259;-54
2022/01/17 03:15:33;;;;;;;9.07;6.83;;;5.10;99.90;;;;;;5114163;28;20620;-55
2022/01/17 03:18:01;;;;;;;8.77;6.97;;;5.10;99.90;;;;;;5133823;27;20230;-55
2022/01/17 03:20:29;;;;;;;10.57;7.00;;;5.10;99.90;;;;;;5134128;27;20654;-56
2022/01/17 03:22:59;;;;;;;9.53;7.67;;;5.20;99.90;;;;;;5122057;27;20209;-55
2022/01/17 03:25:27;;;;;;;9.63;7.40;;;5.20;99.90;;;;;;5093816;28;20223;-55
2022/01/17 03:27:56;;;;;;;8.83;7.03;;;5.10;99.90;;;;;;5093604;28;20679;-55
2022/01/17 03:30:24;;;;;;;9.73;7.80;;;5.10;99.90;;;;;;5104164;27;20266;-55
2022/01/17 03:32:52;;;;;;;9.57;8.03;;;5.10;99.90;;;;;;5134514;27;20272;-55
2022/01/17 03:35:21;;;;;;;12.17;9.03;;;5.10;99.90;;;;;;5122019;27;20204;-55
2022/01/17 03:37:49;;;;;;;11.33;8.90;;;5.10;99.90;;;;;;5113761;28;20336;-55
2022/01/17 03:40:18;;;;;;;14.67;9.43;;;5.10;99.90;;;;;;5113820;28;20262;-54
2022/01/17 03:42:46;;;;;;;12.77;9.70;;;5.10;99.90;;;;;;5113657;28;20210;-55
2022/01/17 03:45:15;;;;;;;14.00;10.53;;;5.00;99.90;;;;;;5126188;27;20203;-55
2022/01/17 03:47:47;;;;;;;12.77;9.27;;;5.00;99.90;;;;;;5133980;27;20203;-55
2022/01/17 03:50:18;;;;;;;12.63;9.17;;;5.00;99.90;;;;;;5134371;27;20441;-55
2022/01/17 03:52:47;;;;;;;12.30;8.67;;;5.00;99.90;;;;;;5127779;27;20263;-54
2022/01/17 03:55:19;;;;;;;13.70;7.90;;;5.00;99.90;;;;;;5113367;28;20207;-55
2022/01/17 03:57:47;;;;;;;14.60;7.67;;;5.10;99.90;;;;;;5115713;27;20632;-55
2022/01/17 04:00:18;;;;;;;12.77;8.00;;;5.10;99.90;;;;;;5118671;27;20259;-55
2022/01/17 04:02:47;;;;;;;12.70;6.40;;;5.10;99.90;;;;;;5112456;28;20613;-56
2022/01/17 04:05:15;;;;;;;10.60;6.70;;;5.10;99.90;;;;;;5092859;28;20208;-55
2022/01/17 04:07:43;;;;;;;12.63;7.10;;;5.10;99.90;;;;;;5097050;28;20204;-54
2022/01/17 04:10:12;;;;;;;10.93;6.90;;;5.10;99.90;;;;;;5112818;28;20214;-55
2022/01/17 04:12:42;;;;;;;12.80;6.80;;;5.10;99.90;;;;;;5119466;27;20199;-55
2022/01/17 04:15:12;;;;;;;13.03;7.47;;;5.10;99.90;;;;;;5133412;27;20226;-55
2022/01/17 04:17:41;;;;;;;14.83;7.30;;;5.10;99.90;;;;;;5133544;27;20213;-54
2022/01/17 04:20:13;;;;;;;16.57;7.17;;;5.10;99.90;;;;;;5104472;27;20266;-55
2022/01/17 04:22:50;;;;;;;14.40;7.87;;;5.10;99.90;;;;;;5093155;28;20387;-55
2022/01/17 04:25:19;;;;;;;13.03;7.47;;;5.10;99.90;;;;;;5092697;28;20226;-55
2022/01/17 04:27:49;;;;;;;14.37;8.23;;;5.10;99.90;;;;;;5123038;27;20214;-54
2022/01/17 04:30:18;;;;;;;15.73;8.40;;;5.10;99.90;;;;;;5132526;27;20215;-56
2022/01/17 04:32:47;;;;;;;19.10;9.63;;;5.10;99.90;;;;;;5133302;27;20202;-55
2022/01/17 04:35:21;;;;;;;17.37;8.70;;;5.10;99.90;;;;;;5119914;27;20201;-55
2022/01/17 04:37:51;;;;;;;15.00;9.33;;;5.10;99.90;;;;;;5112747;28;20606;-55
2022/01/17 04:40:19;;;;;;;19.17;8.93;;;5.10;99.90;;;;;;5112462;28;20637;-55
2022/01/17 04:42:53;;;;;;;18.27;9.50;;;5.00;99.90;;;;;;5112709;28;20239;-54
2022/01/17 04:45:22;;;;;;;14.93;9.10;;;5.00;99.90;;;;;;5112541;28;20257;-54
2022/01/17 04:47:51;;;;;;;17.27;9.07;;;5.00;99.90;;;;;;5112658;27;20230;-56
2022/01/17 04:50:22;;;;;;;18.60;9.77;;;5.00;99.90;;;;;;5112530;28;20250;-55
2022/01/17 04:52:54;;;;;;;16.17;8.70;;;5.00;99.90;;;;;;5111988;28;20203;-54
2022/01/17 04:55:22;;;;;;;17.73;9.20;;;5.00;99.90;;;;;;5112024;28;20849;-55
2022/01/17 04:57:52;;;;;;;18.53;9.80;;;5.00;99.90;;;;;;5114997;27;20253;-54
2022/01/17 05:00:22;;;;;;;20.03;10.00;;;5.00;99.90;;;;;;5113044;27;20231;-56
2022/01/17 05:02:50;;;;;;;24.97;10.70;;;5.00;99.90;;;;;;5112169;28;20680;-54
2022/01/17 05:05:19;;;;;;;19.47;11.03;;;4.90;99.90;;;;;;5111888;28;20207;-55
2022/01/17 05:07:47;;;;;;;22.30;11.17;;;5.00;99.90;;;;;;5112232;28;20339;-55
2022/01/17 05:10:18;;;;;;;22.87;11.03;;;5.00;99.90;;;;;;5111797;28;20269;-55
2022/01/17 05:12:46;;;;;;;20.63;10.40;;;5.00;99.90;;;;;;5112462;28;20200;-54
2022/01/17 05:15:32;;;;;;;22.60;10.53;;;5.00;99.90;;;;;;5112330;28;20205;-55
2022/01/17 05:18:13;;;;;;;23.07;10.60;;;5.00;99.90;;;;;;5115104;27;20252;-54
2022/01/17 05:20:42;;;;;;;16.53;9.33;;;5.00;99.90;;;;;;5112082;28;20237;-57
2022/01/17 05:23:11;;;;;;;17.67;9.70;;;5.00;99.90;;;;;;5111692;28;20245;-54
2022/01/17 05:25:39;;;;;;;20.03;10.10;;;5.10;99.90;;;;;;5112199;28;20241;-54
2022/01/17 05:28:07;;;;;;;19.57;10.13;;;5.10;99.90;;;;;;5111637;28;20382;-54
2022/01/17 05:30:36;;;;;;;20.53;9.67;;;5.10;99.90;;;;;;5111180;28;20245;-55
2022/01/17 05:33:04;;;;;;;37.83;23.43;;;5.10;99.90;;;;;;5111182;28;20204;-56
2022/01/17 05:35:32;;;;;;;27.33;15.53;;;5.10;99.90;;;;;;5103483;28;20226;-55
2022/01/17 05:38:00;;;;;;;17.50;9.00;;;5.10;99.90;;;;;;5091581;28;20257;-54
2022/01/17 05:40:29;;;;;;;16.87;8.97;;;5.10;99.90;;;;;;5108234;27;20269;-54
2022/01/17 05:42:57;;;;;;;18.63;10.87;;;5.10;99.90;;;;;;5132341;27;20207;-55
2022/01/17 05:45:25;;;;;;;24.23;12.63;;;5.00;99.90;;;;;;5131852;27;20250;-55
2022/01/17 05:47:55;;;;;;;18.70;9.13;;;5.10;99.90;;;;;;5113764;27;20555;-55
2022/01/17 05:50:23;;;;;;;21.60;9.53;;;5.10;99.90;;;;;;5111518;28;20227;-55
2022/01/17 05:52:51;;;;;;;20.90;11.20;;;5.10;99.90;;;;;;5111367;28;20200;-53
2022/01/17 05:55:19;;;;;;;19.20;9.23;;;5.10;99.90;;;;;;5110225;28;20211;-55
2022/01/17 05:57:47;;;;;;;17.83;8.73;;;5.10;99.90;;;;;;5095540;28;20212;-55
2022/01/17 06:00:17;;;;;;;22.87;11.00;;;5.10;99.90;;;;;;5111960;28;20223;-54
2022/01/17 06:02:45;;;;;;;23.50;10.70;;;5.10;99.90;;;;;;5111292;28;20201;-54
2022/01/17 06:05:15;;;;;;;23.53;13.43;;;5.10;99.90;;;;;;5111153;28;20204;-55
2022/01/17 06:07:43;;;;;;;19.63;10.30;;;5.10;99.90;;;;;;5111450;28;20207;-55
2022/01/17 06:10:11;;;;;;;19.07;9.83;;;5.10;99.90;;;;;;5110948;28;20654;-55
2022/01/17 06:12:39;;;;;;;19.37;10.70;;;5.10;99.90;;;;;;5111128;28;20250;-55
2022/01/17 06:15:08;;;;;;;24.37;10.80;;;5.10;99.90;;;;;;5110960;28;20612;-55
2022/01/17 06:17:36;;;;;;;27.60;14.33;;;5.10;99.90;;;;;;5112868;28;20551;-54
2022/01/17 06:20:05;;;;;;;39.77;25.87;;;5.10;99.90;;;;;;5131373;28;20721;-55
2022/01/17 06:22:35;;;;;;;25.77;14.03;;;5.20;99.90;;;;;;5131849;27;20207;-54
2022/01/17 06:25:03;;;;;;;32.40;21.20;;;5.20;99.90;;;;;;5131489;28;20668;-56
2022/01/17 06:27:31;;;;;;;20.10;12.40;;;5.10;99.90;;;;;;5131630;28;20736;-55
2022/01/17 06:29:59;;;;;;;26.60;15.50;;;5.10;99.90;;;;;;5114274;27;20713;-54
2022/01/17 06:32:28;;;;;;;32.37;23.27;;;5.10;99.90;;;;;;5111039;28;20257;-54
2022/01/17 06:34:57;;;;;;;27.87;18.27;;;5.10;99.90;;;;;;5111069;28;20211;-54
2022/01/17 06:37:25;;;;;;;22.47;13.80;;;5.10;99.90;;;;;;5110866;28;20199;-55
2022/01/17 06:39:55;;;;;;;23.93;14.43;;;5.10;99.90;;;;;;5110732;28;20786;-56
2022/01/17 06:42:24;;;;;;;21.87;11.13;;;5.10;99.90;;;;;;5127340;27;20251;-56
2022/01/17 06:44:53;;;;;;;19.03;9.07;;;5.10;99.90;;;;;;5114823;28;20211;-54
2022/01/17 06:47:21;;;;;;;16.50;8.90;;;5.00;99.90;;;;;;5115091;28;20245;-55
2022/01/17 06:49:49;;;;;;;19.50;8.43;;;5.00;99.90;;;;;;5114565;28;20218;-55
2022/01/17 06:52:17;;;;;;;18.23;10.10;;;4.90;99.90;;;;;;5114380;28;20236;-55
2022/01/17 06:54:46;;;;;;;24.10;9.17;;;4.90;99.90;;;;;;5114669;28;20749;-54
2022/01/17 06:57:15;;;;;;;22.10;12.50;;;4.90;99.90;;;;;;5114377;28;20204;-54
2022/01/17 06:59:44;;;;;;;27.23;18.80;;;4.80;99.90;;;;;;5119050;27;20922;-54
2022/01/17 07:02:12;;;;;;;38.43;22.33;;;4.80;99.90;;;;;;5114348;28;20849;-55
2022/01/17 07:04:40;;;;;;;18.30;10.30;;;4.90;99.90;;;;;;5114558;28;20768;-55
2022/01/17 07:07:08;;;;;;;20.97;11.00;;;4.90;99.90;;;;;;5114654;28;20256;-55
2022/01/17 07:09:37;;;;;;;17.83;8.60;;;4.90;99.90;;;;;;5113712;28;20289;-55
2022/01/17 07:12:06;;;;;;;19.27;9.13;;;4.90;99.90;;;;;;5114501;28;20193;-55
2022/01/17 07:14:41;;;;;;;18.80;8.40;;;5.00;99.90;;;;;;5114458;28;20211;-55
2022/01/17 07:17:09;;;;;;;18.93;9.10;;;5.00;99.90;;;;;;5114392;28;20191;-56
2022/01/17 07:19:38;;;;;;;18.00;9.43;;;5.00;99.90;;;;;;5132702;27;20223;-54
2022/01/17 07:22:07;;;;;;;17.43;8.60;;;5.00;99.90;;;;;;5135180;27;20227;-55
2022/01/17 07:24:39;;;;;;;19.77;8.30;;;5.00;99.90;;;;;;5134722;27;20224;-56
2022/01/17 07:27:07;;;;;;;14.30;8.80;;;5.00;99.90;;;;;;5134820;27;20202;-55
2022/01/17 07:29:38;;;;;;;15.30;8.07;;;5.00;99.90;;;;;;5134438;27;20257;-55
2022/01/17 07:32:08;;;;;;;15.07;7.37;;;5.10;99.90;;;;;;5134518;27;20214;-55
2022/01/17 07:34:36;;;;;;;17.77;8.90;;;5.10;99.90;;;;;;5134576;27;20203;-55
2022/01/17 07:37:05;;;;;;;18.50;9.03;;;5.10;99.90;;;;;;5134558;27;20231;-55
2022/01/17 07:39:33;;;;;;;16.73;7.83;;;5.10;99.90;;;;;;5122806;27;20793;-56
2022/01/17 07:42:01;;;;;;;14.00;7.70;;;5.10;99.90;;;;;;5130638;27;20226;-56
2022/01/17 07:44:30;;;;;;;16.13;7.60;;;5.10;99.90;;;;;;5134186;27;20268;-55
2022/01/17 07:47:02;;;;;;;13.03;6.90;;;5.10;99.90;;;;;;5134418;27;20209;-55
2022/01/17 07:49:30;;;;;;;14.90;8.37;;;5.10;99.90;;;;;;5110629;27;20647;-55
2022/01/17 07:52:01;;;;;;;25.23;14.47;;;5.20;99.90;;;;;;5113378;28;20594;-55
2022/01/17 07:54:31;;;;;;;25.67;11.87;;;5.20;99.90;;;;;;5112752;28;20226;-55
2022/01/17 07:57:01;;;;;;;44.97;23.33;;;5.20;99.90;;;;;;5113474;28;20651;-56
2022/01/17 07:59:29;;;;;;;13.10;6.80;;;5.20;99.90;;;;;;5123349;27;20236;-55
2022/01/17 08:01:58;;;;;;;12.87;7.20;;;5.20;99.90;;;;;;5113179;28;20258;-54
2022/01/17 08:04:27;;;;;;;18.90;7.83;;;5.30;99.90;;;;;;5113272;28;20200;-55
2022/01/17 08:06:55;;;;;;;19.07;9.43;;;5.20;99.90;;;;;;5113158;27;20576;-55
2022/01/17 08:09:26;;;;;;;19.47;11.63;;;5.30;99.90;;;;;;5112853;28;20263;-55
2022/01/17 08:12:05;;;;;;;11.50;7.00;;;5.30;99.90;;;;;;5113460;28;20193;-55
2022/01/17 08:14:33;;;;;;;11.20;7.47;;;5.30;99.90;;;;;;5123659;27;20206;-55
2022/01/17 08:17:01;;;;;;;13.83;7.00;;;5.30;99.90;;;;;;5133603;27;20663;-55
2022/01/17 08:19:31;;;;;;;16.23;6.50;;;5.30;99.90;;;;;;5133524;27;20249;-55
2022/01/17 08:22:00;;;;;;;13.37;6.87;;;5.30;99.90;;;;;;5133730;27;20247;-54
2022/01/17 08:24:29;;;;;;;15.07;7.10;;;5.30;99.90;;;;;;5133240;27;20698;-54
2022/01/17 08:26:58;;;;;;;14.43;6.87;;;5.40;99.90;;;;;;5129938;27;20200;-55
2022/01/17 08:29:27;;;;;;;12.03;7.17;;;5.40;99.90;;;;;;5130540;27;20232;-54
2022/01/17 08:31:55;;;;;;;13.90;7.00;;;5.40;99.90;;;;;;5133530;27;20666;-55
2022/01/17 08:34:24;;;;;;;13.27;6.90;;;5.40;99.90;;;;;;5132957;27;20211;-55
2022/01/17 08:36:54;;;;;;;8.97;6.10;;;5.40;99.90;;;;;;5133384;27;20210;-55
2022/01/17 08:39:24;;;;;;;13.20;7.77;;;5.40;99.90;;;;;;5122873;27;20277;-55
2022/01/17 08:41:53;;;;;;;13.93;7.30;;;5.40;99.90;;;;;;5112109;28;20215;-56
2022/01/17 08:44:22;;;;;;;14.17;7.30;;;5.40;99.90;;;;;;5110540;28;20203;-56
2022/01/17 08:46:51;;;;;;;14.53;7.10;;;5.50;99.90;;;;;;5111883;28;20721;-55
2022/01/17 08:49:19;;;;;;;14.33;7.30;;;5.50;99.90;;;;;;5112069;28;20848;-55
2022/01/17 08:51:47;;;;;;;11.17;7.13;;;5.50;99.90;;;;;;5112394;28;20202;-54
2022/01/17 08:54:17;;;;;;;17.63;8.17;;;5.50;99.90;;;;;;5112265;28;20672;-55
2022/01/17 08:56:45;;;;;;;13.03;7.90;;;5.50;99.90;;;;;;5112276;28;20256;-56
2022/01/17 08:59:13;;;;;;;14.00;8.43;;;5.50;99.90;;;;;;5111114;27;20302;-55
2022/01/17 09:01:41;;;;;;;15.80;8.70;;;5.50;99.90;;;;;;5108106;28;20208;-54
2022/01/17 09:04:09;;;;;;;13.53;7.53;;;5.50;99.90;;;;;;5112228;28;20845;-55
2022/01/17 09:06:38;;;;;;;14.37;8.37;;;5.60;99.90;;;;;;5111933;28;20203;-55
2022/01/17 09:09:06;;;;;;;16.80;8.10;;;5.60;99.90;;;;;;5111368;28;20289;-55
2022/01/17 09:11:35;;;;;;;12.07;8.27;;;5.60;99.90;;;;;;5112098;28;20197;-56
2022/01/17 09:14:04;;;;;;;11.30;7.90;;;5.60;99.90;;;;;;5113849;28;20207;-54
2022/01/17 09:16:32;;;;;;;13.60;8.50;;;5.70;99.90;;;;;;5114190;28;20208;-54
2022/01/17 09:19:07;;;;;;;13.13;7.43;;;5.70;99.90;;;;;;5127549;27;20225;-56
2022/01/17 09:21:35;;;;;;;13.87;7.40;;;5.80;99.90;;;;;;5134126;27;20207;-55
2022/01/17 09:24:03;;;;;;;15.07;7.70;;;5.80;99.90;;;;;;5133515;27;20207;-55
2022/01/17 09:26:31;;;;;;;13.53;8.43;;;5.90;99.90;;;;;;5132470;27;20202;-55
2022/01/17 09:29:01;;;;;;;13.10;7.17;;;6.00;99.90;;;;;;5112092;28;20794;-55
2022/01/17 09:31:29;;;;;;;16.47;7.73;;;6.10;99.90;;;;;;5111435;28;20210;-55
2022/01/17 09:33:57;;;;;;;13.33;7.90;;;6.10;99.90;;;;;;5111152;28;20225;-55
2022/01/17 09:36:29;;;;;;;13.87;7.67;;;6.10;99.90;;;;;;5110702;28;20702;-56
2022/01/17 09:38:57;;;;;;;11.83;7.90;;;6.20;99.90;;;;;;5111436;28;20636;-55
2022/01/17 09:41:25;;;;;;;11.83;7.33;;;6.30;99.90;;;;;;5102457;28;20208;-58
2022/01/17 09:43:54;;;;;;;12.53;7.63;;;6.30;99.90;;;;;;5095214;28;20233;-56
2022/01/17 09:46:27;;;;;;;12.50;7.63;;;6.40;99.90;;;;;;5105654;28;20208;-55
2022/01/17 09:49:01;;;;;;;12.70;7.27;;;6.50;99.90;;;;;;5110938;28;20829;-55
2022/01/17 09:51:51;;;;;;;14.77;7.03;;;6.50;99.90;;;;;;5111397;28;20256;-56
2022/01/17 09:54:21;;;;;;;16.27;8.20;;;6.50;99.90;;;;;;5111241;28;20257;-56
2022/01/17 09:56:50;;;;;;;12.20;7.27;;;6.60;99.90;;;;;;5111428;28;20199;-56
2022/01/17 09:59:20;;;;;;;13.63;7.00;;;6.70;99.90;;;;;;5115235;28;20223;-56
2022/01/17 10:01:50;;;;;;;12.80;7.63;;;6.80;99.90;;;;;;5099201;28;20201;-54
2022/01/17 10:04:18;;;;;;;10.87;8.40;;;6.90;99.90;;;;;;5103422;28;20313;-55
2022/01/17 10:06:53;;;;;;;10.30;8.07;;;6.90;99.90;;;;;;5103010;28;20211;-56
2022/01/17 10:09:24;;;;;;;12.43;7.47;;;7.00;99.90;;;;;;5098441;28;20274;-56
2022/01/17 10:12:01;;;;;;;8.13;6.30;;;7.10;99.90;;;;;;5111255;28;20191;-56
2022/01/17 10:14:35;;;;;;;10.17;6.80;;;7.30;99.90;;;;;;5111082;28;20663;-56
2022/01/17 10:17:10;;;;;;;11.17;6.00;;;7.30;99.90;;;;;;5111237;28;20198;-56
2022/01/17 10:19:39;;;;;;;6.93;5.83;;;7.40;99.90;;;;;;5134260;27;20229;-55
2022/01/17 10:22:14;;;;;;;7.23;5.33;;;7.50;99.90;;;;;;5135745;27;20233;-55
2022/01/17 10:24:52;;;;;;;8.90;5.33;;;7.50;99.90;;;;;;5136049;27;20210;-56
2022/01/17 10:27:51;;;;;;;6.47;5.23;;;7.50;99.90;;;;;;5135747;27;20187;-57
2022/01/17 10:36:03;;;;;;;6.07;4.70;;;7.40;99.90;;;;;;5082756;28;20628;-56
2022/01/17 10:38:32;;;;;;;6.57;4.80;;;7.40;99.90;;;;;;5114909;28;20214;-57
2022/01/17 10:41:04;;;;;;;5.47;4.10;;;7.50;99.90;;;;;;5115263;28;20256;-55
2022/01/17 10:43:35;;;;;;;4.80;3.60;;;7.50;99.90;;;;;;5133009;27;20283;-56
2022/01/17 10:46:06;;;;;;;6.10;4.20;;;7.60;99.90;;;;;;5136230;27;20194;-56
2022/01/17 10:48:38;;;;;;;6.47;4.53;;;7.50;99.90;;;;;;5134397;27;20289;-55
2022/01/17 10:51:08;;;;;;;7.00;4.30;;;7.60;99.90;;;;;;5114666;28;20646;-55
2022/01/17 10:53:39;;;;;;;5.70;4.63;;;7.70;99.90;;;;;;5103024;28;20663;-55
2022/01/17 10:56:10;;;;;;;5.57;4.83;;;7.80;99.90;;;;;;5094534;28;20200;-55
2022/01/17 10:58:39;;;;;;;5.27;4.00;;;7.90;99.90;;;;;;5111302;27;20209;-56
2022/01/17 11:01:11;;;;;;;5.07;4.57;;;7.90;99.90;;;;;;5101541;28;20230;-56
2022/01/17 11:03:42;;;;;;;5.10;4.27;;;8.00;99.90;;;;;;5114345;28;20243;-53
2022/01/17 11:06:13;;;;;;;4.67;4.07;;;8.30;99.90;;;;;;5114770;28;20215;-56
2022/01/17 11:08:41;;;;;;;5.07;4.33;;;8.30;99.90;;;;;;5114308;28;20257;-54
2022/01/17 11:11:11;;;;;;;23.83;13.43;;;8.30;99.90;;;;;;5114324;28;20205;-56
2022/01/17 11:13:43;;;;;;;29.93;17.77;;;8.30;99.90;;;;;;5114390;28;20199;-55
2022/01/17 11:16:12;;;;;;;15.10;10.87;;;8.30;99.90;;;;;;5114506;28;20645;-54
2022/01/17 11:18:46;;;;;;;12.00;9.10;;;8.30;99.90;;;;;;5114277;28;20249;-55
2022/01/17 11:21:17;;;;;;;5.80;5.20;;;8.20;99.90;;;;;;5114098;28;20203;-55
2022/01/17 11:23:48;;;;;;;5.60;5.03;;;8.20;99.90;;;;;;5114089;28;20669;-55
2022/01/17 11:26:18;;;;;;;6.97;6.07;;;8.20;99.90;;;;;;5114423;27;20196;-55
2022/01/17 11:28:53;;;;;;;6.60;5.67;;;8.20;99.90;;;;;;5108096;28;20267;-55
2022/01/17 11:31:23;;;;;;;4.30;3.90;;;8.10;99.90;;;;;;5098881;28;20251;-55
2022/01/17 11:33:53;;;;;;;4.47;3.77;;;8.10;99.90;;;;;;5104288;28;20208;-55
2022/01/17 11:36:21;;;;;;;5.53;5.00;;;8.00;99.90;;;;;;5093578;28;20204;-54
2022/01/17 11:38:54;;;;;;;7.03;6.13;;;8.00;99.90;;;;;;5106949;28;20250;-54
2022/01/17 11:41:26;;;;;;;6.73;5.90;;;8.00;99.90;;;;;;5114177;28;20196;-54
2022/01/17 11:43:59;;;;;;;9.97;7.03;;;7.90;99.90;;;;;;5113587;28;20238;-55
2022/01/17 11:46:29;;;;;;;5.23;4.80;;;7.90;99.90;;;;;;5113883;28;20203;-55
2022/01/17 11:49:02;;;;;;;3.30;2.90;;;7.90;99.90;;;;;;5114451;28;20200;-55
2022/01/17 11:51:44;;;;;;;4.87;4.43;;;7.90;99.90;;;;;;5115073;28;20212;-55
2022/01/17 11:54:14;;;;;;;3.30;3.00;;;7.90;99.90;;;;;;5115666;28;20621;-55
2022/01/17 11:56:50;;;;;;;3.63;3.33;;;7.90;99.90;;;;;;5115616;28;20211;-55
2022/01/17 11:59:31;;;;;;;3.07;2.87;;;7.90;99.90;;;;;;5123091;27;20218;-56
2022/01/17 12:02:17;;;;;;;3.80;3.50;;;8.00;99.90;;;;;;5114519;27;20200;-55
2022/01/17 12:05:19;;;;;;;3.00;2.80;;;8.10;99.90;;;;;;5114578;28;20267;-56
2022/01/17 12:07:52;;;;;;;3.70;3.30;;;8.10;99.90;;;;;;5114592;28;20210;-55
2022/01/17 12:10:23;;;;;;;3.50;3.20;;;7.90;99.90;;;;;;5114123;28;20263;-56
2022/01/17 12:13:43;;;;;;;3.50;3.20;;;7.90;99.90;;;;;;5114185;28;20610;-56
2022/01/17 12:16:32;;;;;;;3.43;3.13;;;8.00;99.90;;;;;;5113356;28;20202;-55
2022/01/17 12:19:09;;;;;;;3.20;2.90;;;7.90;99.90;;;;;;5126257;27;20195;-56
2022/01/17 12:21:40;;;;;;;3.30;3.07;;;7.90;99.90;;;;;;5133977;27;20610;-55
2022/01/17 12:24:33;;;;;;;3.00;2.70;;;7.90;99.90;;;;;;5133205;27;20706;-55
2022/01/17 12:27:10;;;;;;;3.73;3.43;;;7.90;99.90;;;;;;5133232;27;20603;-55
2022/01/17 12:29:41;;;;;;;3.67;3.30;;;7.90;99.90;;;;;;5107239;28;20258;-56
2022/01/17 12:32:21;;;;;;;4.67;4.27;;;7.90;99.90;;;;;;5092721;28;20211;-55
2022/01/17 12:34:51;;;;;;;3.90;3.50;;;7.90;99.90;;;;;;5103788;28;20237;-54
2022/01/17 12:37:35;;;;;;;23.60;15.40;;;7.90;99.90;;;;;;5112845;28;20695;-54
2022/01/17 12:40:14;;;;;;;13.93;9.23;;;8.00;99.90;;;;;;5113726;28;20229;-56
2022/01/17 12:42:54;;;;;;;2.60;2.40;;;7.90;99.90;;;;;;5124977;27;20259;-56
2022/01/17 12:45:24;;;;;;;2.50;2.30;;;7.80;99.90;;;;;;5127696;27;20250;-55
2022/01/17 12:47:53;;;;;;;3.80;3.57;;;7.70;99.90;;;;;;5112427;28;20269;-55
2022/01/17 12:50:26;;;;;;;2.70;2.50;;;7.70;99.90;;;;;;5112262;28;20247;-55
2022/01/17 12:52:55;;;;;;;3.70;2.30;;;7.60;99.90;;;;;;5112528;28;20615;-54
2022/01/17 12:55:26;;;;;;;2.50;2.30;;;7.60;99.90;;;;;;5112211;28;20225;-54
2022/01/17 12:57:54;;;;;;;4.13;2.53;;;7.50;99.90;;;;;;5112461;28;20206;-54
2022/01/17 13:00:27;;;;;;;3.47;2.07;;;7.50;99.90;;;;;;5096623;28;20227;-55
2022/01/17 13:02:56;;;;;;;2.73;2.53;;;7.60;99.90;;;;;;5112366;28;20219;-54
2022/01/17 13:05:27;;;;;;;4.30;2.40;;;7.60;99.90;;;;;;5109914;28;20230;-55
2022/01/17 13:07:55;;;;;;;3.33;2.47;;;7.60;99.90;;;;;;5097704;28;20208;-55
2022/01/17 13:10:26;;;;;;;2.87;2.30;;;7.60;99.90;;;;;;5105405;28;20223;-55
2022/01/17 13:12:56;;;;;;;2.50;2.30;;;7.70;99.90;;;;;;5091687;28;20253;-55
2022/01/17 13:15:25;;;;;;;2.50;2.30;;;7.80;99.90;;;;;;5110490;28;20203;-54
2022/01/17 13:17:55;;;;;;;2.30;2.13;;;8.00;99.90;;;;;;5109698;27;20251;-55